Agana Heights, GU

5:41 PM ChST on August 22, 2014 (GMT +1000)
Maite | Change Station
CLOSE
Current Station
Personal Weather Station
Location: Maite, GU
Elevation: 140 ft
Nearby Weather Stations

Elev 140 ft 13.48 °N, 144.76 °E | Updated 11 seconds ago

Scattered Clouds
Scattered Clouds
84.2 °F
Feels Like 96 °F
N
5.0
Wind Variable Wind from NNW
Gusts 8.0 mph

Today
High -- | Low -- °F
--% Chance of Precip.
Yesterday
High -- | Low -- °F
Precip. -- in
6:08 AM 6:38 PM
Waning Crescent, 9% visible
Pressure 29.80 in
Visibility 10.0 miles
Clouds Few 2000 ft
Scattered Clouds 8000 ft
Heat Index 96 °F
Dew Point 78 °F
Humidity 83%
Rainfall 0.70 in
Snow Depth Not available.
UV 0.5 out of 12
Pollen Not available.
Air Quality Not available.
Flu Activity Not available.
METAR PGUM 220654Z 00000KT 10SM FEW020 SCT080 29/25 A2982 RMK AO2 SLP089 T02890250 $

More Conditions Fewer Conditions

Pressure 29.80 in
Visibility 10.0 miles
Clouds Few 2000 ft
Scattered Clouds 8000 ft
Heat Index 96 °F
Dew Point 78 °F
Humidity 83%
Rainfall 0.70 in
Snow Depth Not available.
UV 0.5 out of 12
Pollen Not available.
Air Quality Not available.
Flu Activity Not available.
METAR PGUM 220654Z 00000KT 10SM FEW020 SCT080 29/25 A2982 RMK AO2 SLP089 T02890250 $

More Conditions Fewer Conditions

10-Day Weather Forecast

Almanac

Astronomy

Aug. 22, 2014 Rise Set
Actual Time 6:08 AM ChST 6:38 PM ChST
Civil Twilight 5:47 AM ChST 7:00 PM ChST
Nautical Twilight 5:21 AM ChST 7:26 PM ChST
Astronomical Twilight 4:55 AM ChST 7:51 PM ChST
Moon 3:12 AM ChST 4:09 PM ChST
Length of Visible Light 13h 13m
Length of Day
12h 29m
Tomorrow will be 0m 42s shorter.
Waning Crescent, 9% of the Moon is Illuminated
Today
Waning Crescent
Aug 25
New
Sep 2
First Quarter
Sep 8
Full
Sep 15
Last Quarter

Community

WunderPhotos

Upload Photos

1,746,131 photos uploaded!

Nearby

Snow Depth

Station Depth Elevation
No new snow has been reported.

Earthquake Activity

City Distance Mag. Time & Date
No recent earthquake activity has been reported nearby.
Minimum magnitude displayed is 2.5.

Coastal Water Temperatures

Place Temperature
No Stations Reporting

Nearby Weather Stations